Time;durP1;ratioP1;P1;durP2;ratioP2;P2;SDS_P1;SDS_P2;PMS_P1;PMS_P2;Temp;Humidity;BMP_temperature;BMP_pressure;BME280_temperature;BME280_humidity;BME280_pressure;Samples;Min_cycle;Max_cycle;Signal;HPM_P1;HPM_P2
2023/03/20 00:02:07;;;;;;;;;;;;;;;3.48;89.60;100222.55;109129;1258;66492;-75
2023/03/20 00:04:36;;;;;;;;;;;;;;;3.44;89.97;100214.01;109144;1259;73007;-75
2023/03/20 00:07:09;;;;;;;;;;;;;;;3.39;90.10;100213.05;108939;1259;58609;-75
2023/03/20 00:09:47;;;;;;;;;;;;;;;3.34;90.38;100209.25;108968;1258;59779;-74
2023/03/20 00:12:17;;;;;;;;;;;;;;;3.31;90.73;100210.02;109100;1259;75089;-73
2023/03/20 00:14:45;;;;;;;;;;;;;;;3.29;91.20;100205.98;109037;1258;66718;-75
2023/03/20 00:17:16;;;;;;;;;;;;;;;3.29;91.54;100207.20;109107;1258;73719;-75
2023/03/20 00:19:54;;;;;;;;;;;;;;;3.31;91.68;100200.56;109093;1258;59349;-74
2023/03/20 00:22:22;;;;;;;;;;;;;;;3.34;91.83;100199.73;109034;1259;61384;-75
2023/03/20 00:24:50;;;;;;;;;;;;;;;3.36;91.88;100199.41;109133;1258;74695;-76
2023/03/20 00:27:36;;;;;;;;;;;;;;;3.37;91.82;100201.43;109118;1258;67768;-78
2023/03/20 00:30:09;;;;;;;;;;;;;;;3.36;91.74;100196.47;109011;1260;73842;-75
2023/03/20 00:32:37;;;;;;;;;;;;;;;3.32;91.84;100196.60;108975;1259;59595;-79
2023/03/20 00:35:20;;;;;;;;;;;;;;;3.26;91.92;100197.15;109139;1259;58267;-77
2023/03/20 00:37:55;;;;;;;;;;;;;;;3.18;91.94;100196.91;109106;1259;73177;-74
2023/03/20 00:40:25;;;;;;;;;;;;;;;3.10;92.06;100190.79;109135;1258;67500;-74
2023/03/20 00:42:56;;;;;;;;;;;;;;;3.06;92.36;100185.70;109130;1258;73827;-78
2023/03/20 00:45:25;;;;;;;;;;;;;;;3.04;92.66;100181.52;108963;1259;61888;-72
2023/03/20 00:47:53;;;;;;;;;;;;;;;3.03;92.91;100178.93;109074;1258;58755;-71
2023/03/20 00:50:23;;;;;;;;;;;;;;;3.04;93.09;100183.58;109083;1260;72286;-73
2023/03/20 00:52:52;;;;;;;;;;;;;;;3.06;93.35;100183.10;109125;1258;68169;-74
2023/03/20 00:55:21;;;;;;;;;;;;;;;3.11;93.44;100181.55;109110;1258;73432;-73
2023/03/20 00:57:54;;;;;;;;;;;;;;;3.14;93.48;100178.74;109037;1262;59190;-76
2023/03/20 01:00:34;;;;;;;;;;;;;;;3.14;93.46;100181.16;109056;1259;61315;-73
2023/03/20 01:03:05;;;;;;;;;;;;;;;3.12;93.40;100180.21;109061;1259;73373;-74
2023/03/20 01:05:33;;;;;;;;;;;;;;;3.06;93.46;100177.98;108995;1259;67709;-75
2023/03/20 01:08:02;;;;;;;;;;;;;;;3.01;93.62;100184.32;108920;1262;72219;-75
2023/03/20 01:10:31;;;;;;;;;;;;;;;2.95;93.73;100180.81;108991;1259;62148;-73
2023/03/20 01:12:59;;;;;;;;;;;;;;;2.92;93.99;100182.13;108284;1259;1002171;-77
2023/03/20 01:15:30;;;;;;;;;;;;;;;2.90;94.29;100175.25;109021;1259;72575;-75
2023/03/20 01:17:58;;;;;;;;;;;;;;;2.91;94.46;100171.38;108937;1259;67012;-77
2023/03/20 01:20:31;;;;;;;;;;;;;;;2.95;94.54;100168.30;109017;1259;74282;-78
2023/03/20 01:23:00;;;;;;;;;;;;;;;2.99;94.68;100168.06;109014;1259;59683;-77
2023/03/20 01:25:28;;;;;;;;;;;;;;;3.04;94.79;100168.39;109030;1259;59895;-75
2023/03/20 01:27:57;;;;;;;;;;;;;;;3.07;94.71;100166.41;108929;1259;73579;-76
2023/03/20 01:30:27;;;;;;;;;;;;;;;3.09;94.64;100167.22;108520;1259;690127;-76
2023/03/20 01:32:59;;;;;;;;;;;;;;;3.10;94.43;100168.67;108943;1259;71915;-76
2023/03/20 01:35:29;;;;;;;;;;;;;;;3.08;94.37;100167.86;108915;1260;59399;-76
2023/03/20 01:38:01;;;;;;;;;;;;;;;3.05;94.06;100165.19;109068;1259;59142;-79
2023/03/20 01:40:40;;;;;;;;;;;;;;;3.01;94.01;100167.38;109050;1259;74580;-75
2023/03/20 01:43:13;;;;;;;;;;;;;;;2.95;94.23;100161.23;109074;1259;66564;-76
2023/03/20 01:45:46;;;;;;;;;;;;;;;2.92;94.24;100160.72;108943;1259;73633;-75
2023/03/20 01:48:19;;;;;;;;;;;;;;;2.90;94.46;100161.80;108942;1259;60173;-84
2023/03/20 01:50:47;;;;;;;;;;;;;;;2.91;94.73;100159.60;108971;1259;61107;-74
2023/03/20 01:53:20;;;;;;;;;;;;;;;2.93;94.83;100159.79;109023;1259;75008;-82
2023/03/20 01:55:53;;;;;;;;;;;;;;;2.98;94.77;100162.05;108905;1260;68109;-80
2023/03/20 01:58:36;;;;;;;;;;;;;;;3.01;94.59;100163.60;108963;1259;73826;-80
2023/03/20 02:01:06;;;;;;;;;;;;;;;3.01;94.39;100164.16;108931;1259;60498;-80
2023/03/20 02:03:42;;;;;;;;;;;;;;;2.93;94.45;100170.41;108981;1259;61354;-80
2023/03/20 02:06:37;;;;;;;;;;;;;;;2.85;94.45;100168.58;109038;1260;74051;-78
2023/03/20 02:09:16;;;;;;;;;;;;;;;2.77;94.59;100168.40;108965;1260;67867;-79
2023/03/20 02:11:46;;;;;;;;;;;;;;;2.66;94.74;100166.72;109026;1260;72787;-79
2023/03/20 02:14:18;;;;;;;;;;;;;;;2.56;95.24;100164.37;109029;1260;59551;-79
2023/03/20 02:16:59;;;;;;;;;;;;;;;2.47;95.48;100163.32;108957;1260;59152;-76
2023/03/20 02:19:48;;;;;;;;;;;;;;;2.38;95.99;100166.92;108942;1260;73469;-78
2023/03/20 02:22:47;;;;;;;;;;;;;;;2.23;96.79;100171.79;108893;1259;66473;-80
2023/03/20 02:25:42;;;;;;;;;;;;;;;2.05;97.68;100174.29;108998;1259;71714;-79
2023/03/20 02:28:43;;;;;;;;;;;;;;;2.04;98.14;100170.88;108881;1267;59902;-77
2023/03/20 02:31:32;;;;;;;;;;;;;;;2.05;97.94;100173.84;108941;1260;59874;-79
2023/03/20 02:34:22;;;;;;;;;;;;;;;2.03;97.56;100172.05;109067;1259;73016;-79
2023/03/20 02:37:18;;;;;;;;;;;;;;;2.06;96.97;100171.22;109126;1260;67901;-80
2023/03/20 02:39:58;;;;;;;;;;;;;;;2.06;96.77;100174.94;109052;1260;72381;-83
2023/03/20 02:42:54;;;;;;;;;;;;;;;2.06;96.43;100175.92;109119;1260;58233;-73
2023/03/20 02:45:33;;;;;;;;;;;;;;;2.01;96.38;100168.77;109153;1259;60067;-74
2023/03/20 02:48:15;;;;;;;;;;;;;;;1.98;96.52;100166.91;108946;1260;73835;-72
2023/03/20 02:50:55;;;;;;;;;;;;;;;1.92;96.33;100165.11;109009;1260;68028;-83
2023/03/20 02:53:34;;;;;;;;;;;;;;;1.92;96.44;100160.17;109019;1260;73710;-78
2023/03/20 02:56:25;;;;;;;;;;;;;;;1.95;96.43;100155.54;108999;1259;60730;-80
2023/03/20 02:59:11;;;;;;;;;;;;;;;2.01;96.15;100157.52;109136;1259;58789;-81
2023/03/20 03:07:54;;;;;;;;;;;;;;;1.98;94.54;100142.67;103993;1293;598817;-79
2023/03/20 03:10:26;;;;;;;;;;;;;;;1.96;94.09;100133.14;106551;1266;59862;-79
2023/03/20 03:12:56;;;;;;;;;;;;;;;1.90;93.53;100133.66;106400;1268;60443;-77
2023/03/20 03:15:35;;;;;;;;;;;;;;;1.83;92.98;100130.17;106628;1269;71781;-78
2023/03/20 03:18:11;;;;;;;;;;;;;;;1.66;92.57;100124.89;106527;1270;68777;-79
2023/03/20 03:20:40;;;;;;;;;;;;;;;1.52;92.62;100119.73;106095;1266;549349;-76
2023/03/20 03:23:10;;;;;;;;;;;;;;;1.44;92.71;100114.88;106447;1268;61044;-78
2023/03/20 03:25:38;;;;;;;;;;;;;;;1.33;92.72;100114.71;106351;1263;61007;-71
2023/03/20 03:28:13;;;;;;;;;;;;;;;1.27;92.98;100114.16;106198;1266;73195;-69
2023/03/20 03:30:44;;;;;;;;;;;;;;;1.25;93.32;100113.36;105845;1264;67711;-72
2023/03/20 03:33:15;;;;;;;;;;;;;;;1.25;93.43;100107.83;105988;1264;74701;-70
2023/03/20 03:35:45;;;;;;;;;;;;;;;1.29;93.77;100105.28;106170;1266;60538;-72
2023/03/20 03:38:13;;;;;;;;;;;;;;;1.29;93.55;100110.62;106511;1255;59932;-71
2023/03/20 03:40:45;;;;;;;;;;;;;;;1.28;93.66;100111.59;106614;1256;72586;-72
2023/03/20 03:43:17;;;;;;;;;;;;;;;1.24;93.66;100112.41;106580;1258;68856;-74
2023/03/20 03:45:51;;;;;;;;;;;;;;;1.22;94.03;100111.63;106859;1256;74991;-71
2023/03/20 03:48:39;;;;;;;;;;;;;;;1.24;93.95;100108.21;107045;1256;59585;-70
2023/03/20 03:51:10;;;;;;;;;;;;;;;1.21;94.07;100105.80;107239;1252;59824;-73
2023/03/20 03:53:47;;;;;;;;;;;;;;;1.20;94.32;100111.20;106573;1257;1002549;-72
2023/03/20 03:56:16;;;;;;;;;;;;;;;1.21;94.32;100117.04;107171;1257;68516;-74
2023/03/20 03:58:47;;;;;;;;;;;;;;;1.13;93.79;100117.96;106878;1258;72654;-71
2023/03/20 04:01:16;;;;;;;;;;;;;;;1.02;93.66;100122.60;106238;1257;60201;-73
2023/03/20 04:03:55;;;;;;;;;;;;;;;0.92;93.69;100118.33;105713;1259;60017;-73
2023/03/20 04:06:24;;;;;;;;;;;;;;;0.85;93.95;100117.63;105669;1255;73251;-74
2023/03/20 04:08:54;;;;;;;;;;;;;;;0.92;94.46;100114.80;106248;1259;69622;-74
2023/03/20 04:11:27;;;;;;;;;;;;;;;1.03;94.85;100112.76;106404;1254;74286;-73
2023/03/20 04:13:56;;;;;;;;;;;;;;;1.15;94.87;100109.58;106110;1259;60502;-72
2023/03/20 04:16:25;;;;;;;;;;;;;;;1.25;95.02;100110.83;106362;1255;60049;-72
2023/03/20 04:18:57;;;;;;;;;;;;;;;1.31;94.38;100113.04;106257;1258;74156;-71
2023/03/20 04:21:27;;;;;;;;;;;;;;;1.36;94.20;100109.66;106035;1257;67926;-72
2023/03/20 04:23:55;;;;;;;;;;;;;;;1.38;93.71;100113.59;106131;1259;71933;-70
2023/03/20 04:26:23;;;;;;;;;;;;;;;1.25;93.17;100120.08;105746;1256;61293;-72
2023/03/20 04:28:52;;;;;;;;;;;;;;;1.06;92.34;100119.27;106044;1253;60083;-70
2023/03/20 04:31:51;;;;;;;;;;;;;;;0.83;92.15;100125.20;106077;1255;73869;-72
2023/03/20 04:34:37;;;;;;;;;;;;;;;0.67;92.56;100123.27;105735;1259;69120;-71
2023/03/20 04:37:16;;;;;;;;;;;;;;;0.56;92.74;100126.88;105609;1267;73679;-71
2023/03/20 04:39:50;;;;;;;;;;;;;;;0.49;93.10;100128.05;105915;1254;62436;-72
2023/03/20 04:42:18;;;;;;;;;;;;;;;0.49;93.32;100123.45;105768;1259;59840;-71
2023/03/20 04:44:48;;;;;;;;;;;;;;;0.53;93.64;100121.88;106101;1257;74696;-70
2023/03/20 04:47:16;;;;;;;;;;;;;;;0.64;94.03;100125.08;105761;1258;67272;-71
2023/03/20 04:49:46;;;;;;;;;;;;;;;0.75;94.03;100126.63;105876;1259;73256;-72
2023/03/20 04:52:16;;;;;;;;;;;;;;;0.82;93.85;100123.27;106035;1257;60246;-73
2023/03/20 04:54:45;;;;;;;;;;;;;;;0.87;93.78;100125.35;105983;1253;61664;-71
2023/03/20 04:57:13;;;;;;;;;;;;;;;0.91;93.73;100126.69;105972;1257;74530;-70
2023/03/20 04:59:42;;;;;;;;;;;;;;;0.91;93.21;100125.86;106003;1258;69752;-72
2023/03/20 05:02:13;;;;;;;;;;;;;;;0.89;93.29;100120.41;105898;1255;72934;-71
2023/03/20 05:04:42;;;;;;;;;;;;;;;0.87;93.35;100119.72;105527;1258;61483;-71
2023/03/20 05:07:11;;;;;;;;;;;;;;;0.86;93.43;100119.42;105758;1254;59807;-70
2023/03/20 05:09:52;;;;;;;;;;;;;;;0.90;93.34;100125.64;105834;1255;73879;-69
2023/03/20 05:12:21;;;;;;;;;;;;;;;0.94;93.69;100124.77;105899;1259;67722;-70
2023/03/20 05:15:19;;;;;;;;;;;;;;;1.03;93.61;100126.32;105429;1263;72471;-71
2023/03/20 05:18:07;;;;;;;;;;;;;;;1.12;94.13;100125.82;105978;1259;60941;-74
2023/03/20 05:21:01;;;;;;;;;;;;;;;1.26;94.24;100122.77;105741;1259;60826;-71
2023/03/20 05:23:50;;;;;;;;;;;;;;;1.47;94.68;100121.02;105653;1263;75530;-69
2023/03/20 05:26:37;;;;;;;;;;;;;;;1.60;94.40;100121.23;105872;1257;69412;-71
2023/03/20 05:29:43;;;;;;;;;;;;;;;1.69;94.12;100121.05;105024;1264;73958;-69
2023/03/20 05:32:27;;;;;;;;;;;;;;;1.76;94.21;100121.56;105513;1263;60837;-69
2023/03/20 05:35:15;;;;;;;;;;;;;;;1.83;94.04;100125.16;105502;1256;59667;-72
2023/03/20 05:37:52;;;;;;;;;;;;;;;1.89;93.99;100125.00;105906;1256;74838;-71
2023/03/20 05:40:31;;;;;;;;;;;;;;;1.94;94.09;100126.46;105866;1256;67178;-70
2023/03/20 05:43:20;;;;;;;;;;;;;;;2.00;94.11;100123.45;105708;1257;74571;-72
2023/03/20 05:46:21;;;;;;;;;;;;;;;2.08;94.10;100128.48;105949;1253;62584;-69
2023/03/20 05:49:25;;;;;;;;;;;;;;;2.20;94.27;100130.53;105327;1261;61291;-72
2023/03/20 05:52:21;;;;;;;;;;;;;;;2.33;93.88;100131.50;105947;1257;72918;-70
2023/03/20 05:55:15;;;;;;;;;;;;;;;2.46;93.48;100129.00;105510;1259;69139;-76
2023/03/20 05:58:02;;;;;;;;;;;;;;;2.59;93.19;100128.02;105806;1253;72350;-74
2023/03/20 06:00:51;;;;;;;;;;;;;;;2.74;92.57;100129.92;105808;1258;59885;-72
2023/03/20 06:03:39;;;;;;;;;;;;;;;2.86;92.01;100129.91;105672;1262;62001;-71
2023/03/20 06:06:11;;;;;;;;;;;;;;;2.98;91.54;100130.90;105882;1257;74248;-72
2023/03/20 06:08:40;;;;;;;;;;;;;;;3.06;90.93;100131.95;105729;1262;69819;-74
2023/03/20 06:11:10;;;;;;;;;;;;;;;3.11;90.17;100127.84;105438;1259;72430;-71
2023/03/20 06:13:38;;;;;;;;;;;;;;;3.15;89.72;100131.09;105513;1261;61206;-72
2023/03/20 06:16:07;;;;;;;;;;;;;;;3.21;89.36;100132.13;105629;1257;61157;-70
2023/03/20 06:18:37;;;;;;;;;;;;;;;3.26;89.15;100137.31;105652;1263;74578;-70
2023/03/20 06:21:10;;;;;;;;;;;;;;;3.30;88.75;100137.41;105499;1265;67188;-70
2023/03/20 06:23:39;;;;;;;;;;;;;;;3.36;88.38;100137.58;105592;1260;72080;-72
2023/03/20 06:26:08;;;;;;;;;;;;;;;3.42;88.00;100142.87;105717;1270;61381;-72
2023/03/20 06:28:47;;;;;;;;;;;;;;;3.51;87.67;100142.31;105906;1253;61267;-71
2023/03/20 06:31:18;;;;;;;;;;;;;;;3.61;87.41;100141.16;105831;1254;71375;-70
2023/03/20 06:33:47;;;;;;;;;;;;;;;3.73;87.07;100141.13;105994;1257;69532;-71
2023/03/20 06:36:15;;;;;;;;;;;;;;;3.84;86.51;100142.63;105777;1261;74571;-71
2023/03/20 06:38:44;;;;;;;;;;;;;;;3.90;85.96;100146.14;105933;1259;61090;-69
2023/03/20 06:41:15;;;;;;;;;;;;;;;3.98;85.90;100144.18;105781;1257;60058;-74
2023/03/20 06:44:03;;;;;;;;;;;;;;;4.11;85.62;100142.78;105847;1267;73487;-72
2023/03/20 06:46:47;;;;;;;;;;;;;;;4.22;85.36;100144.15;105793;1268;67915;-72
2023/03/20 06:49:15;;;;;;;;;;;;;;;4.31;85.10;100145.02;105832;1255;74599;-69
2023/03/20 06:51:47;;;;;;;;;;;;;;;4.40;84.59;100143.95;105844;1258;59669;-72
2023/03/20 06:54:21;;;;;;;;;;;;;;;4.47;84.20;100144.05;105851;1259;60510;-71
2023/03/20 06:56:51;;;;;;;;;;;;;;;4.53;83.69;100148.30;105926;1253;74326;-69
2023/03/20 06:59:21;;;;;;;;;;;;;;;4.59;83.25;100145.00;105801;1254;69271;-73
2023/03/20 07:01:55;;;;;;;;;;;;;;;4.65;82.39;100140.84;105926;1255;74378;-72
2023/03/20 07:04:25;;;;;;;;;;;;;;;4.71;81.94;100136.93;105882;1254;61808;-70
2023/03/20 07:07:00;;;;;;;;;;;;;;;4.81;81.74;100135.64;105807;1254;61922;-73
2023/03/20 07:09:28;;;;;;;;;;;;;;;4.92;81.23;100135.50;105927;1256;74822;-71
2023/03/20 07:11:56;;;;;;;;;;;;;;;5.01;81.01;100134.58;105929;1254;66627;-71
2023/03/20 07:14:28;;;;;;;;;;;;;;;5.14;80.72;100135.65;105685;1259;73793;-71
2023/03/20 07:17:08;;;;;;;;;;;;;;;5.30;80.53;100132.27;105861;1257;61031;-70
2023/03/20 07:19:37;;;;;;;;;;;;;;;5.44;80.02;100132.38;105852;1267;60822;-73
2023/03/20 07:22:07;;;;;;;;;;;;;;;5.53;79.41;100129.75;105961;1253;74299;-71
2023/03/20 07:24:40;;;;;;;;;;;;;;;5.62;79.11;100129.59;105945;1257;69288;-70
2023/03/20 07:27:14;;;;;;;;;;;;;;;5.73;78.91;100132.45;105822;1254;72736;-72
2023/03/20 07:29:42;;;;;;;;;;;;;;;5.83;78.30;100131.66;105836;1260;60528;-75
2023/03/20 07:32:13;;;;;;;;;;;;;;;5.89;77.67;100130.15;106033;1257;71680;-73
2023/03/20 07:34:49;;;;;;;;;;;;;;;5.95;77.28;100129.31;105750;1263;75367;-75
2023/03/20 07:37:19;;;;;;;;;;;;;;;6.02;76.80;100127.45;105681;1260;69705;-75
2023/03/20 07:40:01;;;;;;;;;;;;;;;6.09;76.37;100124.97;105651;1257;73383;-76
2023/03/20 07:42:35;;;;;;;;;;;;;;;6.17;76.25;100124.41;105694;1257;61483;-72
2023/03/20 07:53:10;;;;;;;;;;;;;;;6.61;73.99;100119.17;102779;1295;600392;-72
2023/03/20 07:55:38;;;;;;;;;;;;;;;6.69;73.46;100115.59;104992;1267;60055;-77
2023/03/20 07:58:07;;;;;;;;;;;;;;;6.77;72.72;100111.80;105414;1263;60632;-72
2023/03/20 08:00:36;;;;;;;;;;;;;;;6.83;71.89;100110.61;105381;1260;73580;-71
2023/03/20 08:03:04;;;;;;;;;;;;;;;6.89;71.35;100108.89;105457;1264;69025;-77
2023/03/20 08:05:32;;;;;;;;;;;;;;;6.94;70.89;100105.30;105320;1260;71457;-76
2023/03/20 08:08:01;;;;;;;;;;;;;;;7.00;70.59;100102.52;105138;1262;59457;-73
2023/03/20 08:10:29;;;;;;;;;;;;;;;7.09;70.31;100103.28;105660;1257;61184;-70
2023/03/20 08:12:58;;;;;;;;;;;;;;;7.16;69.79;100101.55;105739;1260;73766;-74
2023/03/20 08:15:28;;;;;;;;;;;;;;;7.24;69.65;100105.92;105435;1265;70671;-75
2023/03/20 08:18:01;;;;;;;;;;;;;;;7.33;68.88;100108.56;105574;1263;74716;-75
2023/03/20 08:20:30;;;;;;;;;;;;;;;7.41;67.91;100104.34;105697;1257;59992;-75
2023/03/20 08:22:59;;;;;;;;;;;;;;;7.45;66.86;100110.48;105642;1258;61737;-72
2023/03/20 08:25:33;;;;;;;;;;;;;;;7.51;66.48;100113.64;105520;1261;74830;-73
2023/03/20 08:28:02;;;;;;;;;;;;;;;7.57;65.57;100113.95;105554;1263;66873;-74
2023/03/20 08:30:31;;;;;;;;;;;;;;;7.62;64.49;100116.38;105679;1262;74457;-72
2023/03/20 08:33:00;;;;;;;;;;;;;;;7.69;63.68;100112.45;105560;1261;60845;-76
2023/03/20 08:35:29;;;;;;;;;;;;;;;7.73;62.70;100111.25;105507;1260;61368;-73
2023/03/20 08:38:06;;;;;;;;;;;;;;;7.79;62.58;100111.77;105724;1258;74281;-74
2023/03/20 08:40:39;;;;;;;;;;;;;;;7.87;62.83;100112.84;105574;1263;69586;-77
2023/03/20 08:43:07;;;;;;;;;;;;;;;7.94;62.35;100111.08;105566;1260;73784;-75
2023/03/20 08:45:36;;;;;;;;;;;;;;;8.00;62.26;100104.25;105691;1263;60933;-74
2023/03/20 08:48:05;;;;;;;;;;;;;;;8.07;62.30;100102.48;105487;1262;60625;-78
2023/03/20 08:50:33;;;;;;;;;;;;;;;8.15;62.22;100105.00;105380;1264;74250;-76
2023/03/20 08:53:01;;;;;;;;;;;;;;;8.20;61.26;100100.92;105487;1263;68336;-74
2023/03/20 08:55:29;;;;;;;;;;;;;;;8.24;61.01;100097.05;105556;1266;74886;-72
2023/03/20 08:57:57;;;;;;;;;;;;;;;8.27;61.06;100091.54;105561;1258;61755;-75
2023/03/20 09:00:26;;;;;;;;;;;;;;;8.36;60.81;100090.96;105648;1262;61770;-72
2023/03/20 09:02:54;;;;;;;;;;;;;;;8.44;59.22;100086.40;105486;1265;74938;-74
2023/03/20 09:05:23;;;;;;;;;;;;;;;8.50;57.84;100087.36;105650;1262;70244;-74
2023/03/20 09:07:51;;;;;;;;;;;;;;;8.55;57.13;100083.58;105497;1261;71097;-72
2023/03/20 09:10:19;;;;;;;;;;;;;;;8.60;56.26;100084.74;105628;1262;60229;-74
2023/03/20 09:12:47;;;;;;;;;;;;;;;8.65;55.75;100078.45;105563;1263;59818;-74
2023/03/20 09:15:15;;;;;;;;;;;;;;;8.71;56.07;100072.95;105480;1260;74597;-73
2023/03/20 09:17:44;;;;;;;;;;;;;;;8.76;56.42;100064.23;105797;1261;69610;-75
2023/03/20 09:20:12;;;;;;;;;;;;;;;8.77;55.53;100067.19;105703;1262;74046;-72
2023/03/20 09:22:42;;;;;;;;;;;;;;;8.78;55.30;100064.69;105363;1262;59651;-72
2023/03/20 09:25:11;;;;;;;;;;;;;;;8.83;55.21;100063.41;105587;1262;59592;-78
2023/03/20 09:27:39;;;;;;;;;;;;;;;8.87;55.43;100057.79;105533;1266;74971;-73
2023/03/20 09:30:08;;;;;;;;;;;;;;;8.94;55.48;100051.48;105792;1257;69768;-72
2023/03/20 09:32:40;;;;;;;;;;;;;;;9.03;55.57;100046.01;105713;1262;74302;-75
2023/03/20 09:35:08;;;;;;;;;;;;;;;9.10;54.93;100041.84;105620;1263;60063;-75
2023/03/20 09:37:37;;;;;;;;;;;;;;;9.16;54.16;100044.73;105681;1257;60167;-76
2023/03/20 09:40:06;;;;;;;;;;;;;;;9.22;53.91;100045.46;105504;1262;74228;-70
2023/03/20 09:42:41;;;;;;;;;;;;;;;9.30;53.42;100047.63;105537;1263;68494;-74
2023/03/20 09:45:10;;;;;;;;;;;;;;;9.36;53.32;100044.23;105604;1262;74226;-71
2023/03/20 09:47:44;;;;;;;;;;;;;;;9.43;53.49;100040.26;105522;1259;59771;-70
2023/03/20 09:50:12;;;;;;;;;;;;;;;9.51;52.76;100047.21;105095;1257;61754;-73
2023/03/20 09:52:45;;;;;;;;;;;;;;;9.55;52.05;100046.27;105606;1262;73674;-73
2023/03/20 09:55:14;;;;;;;;;;;;;;;9.57;51.76;100042.52;105527;1264;69720;-72
2023/03/20 09:57:44;;;;;;;;;;;;;;;9.61;52.15;100039.70;105688;1257;73126;-76
2023/03/20 10:00:19;;;;;;;;;;;;;;;9.68;52.04;100037.00;105573;1263;59682;-71
2023/03/20 10:02:48;;;;;;;;;;;;;;;9.77;51.79;100033.02;105449;1257;59765;-72
2023/03/20 10:05:26;;;;;;;;;;;;;;;9.86;50.82;100027.93;105527;1262;72829;-72
2023/03/20 10:07:57;;;;;;;;;;;;;;;9.89;50.51;100018.77;105661;1261;67768;-74
2023/03/20 10:10:58;;;;;;;;;;;;;;;9.92;50.63;100015.91;105696;1258;73523;-72
2023/03/20 10:13:32;;;;;;;;;;;;;;;9.94;50.43;100014.63;105446;1263;59902;-70
2023/03/20 10:16:04;;;;;;;;;;;;;;;9.98;50.70;100018.30;105365;1261;61126;-71
2023/03/20 10:18:34;;;;;;;;;;;;;;;10.03;50.46;100017.53;105453;1257;73292;-75
2023/03/20 10:21:03;;;;;;;;;;;;;;;10.00;50.76;100013.63;105649;1260;68326;-74
2023/03/20 10:23:40;;;;;;;;;;;;;;;10.02;50.94;100007.64;105638;1263;73072;-73
2023/03/20 10:26:09;;;;;;;;;;;;;;;10.09;50.66;100004.23;105672;1258;61135;-74
2023/03/20 10:28:44;;;;;;;;;;;;;;;10.14;50.42;100002.72;105565;1262;59533;-72
2023/03/20 10:31:18;;;;;;;;;;;;;;;10.18;50.07;99997.11;105608;1257;73823;-74
2023/03/20 10:33:51;;;;;;;;;;;;;;;10.14;50.17;99992.13;105754;1256;68267;-73
2023/03/20 10:36:26;;;;;;;;;;;;;;;10.16;50.36;99991.42;105601;1260;74883;-71
2023/03/20 10:39:05;;;;;;;;;;;;;;;10.19;50.49;99990.90;105578;1257;62027;-75
2023/03/20 10:41:35;;;;;;;;;;;;;;;10.25;51.01;99977.31;105718;1260;59558;-74
2023/03/20 10:44:14;;;;;;;;;;;;;;;10.34;50.16;99974.04;105838;1256;74094;-74
2023/03/20 10:46:43;;;;;;;;;;;;;;;10.39;49.40;99976.13;105692;1260;67199;-76
2023/03/20 10:49:19;;;;;;;;;;;;;;;10.45;49.42;99971.55;105682;1263;74514;-74
2023/03/20 10:51:48;;;;;;;;;;;;;;;10.56;49.30;99966.24;105925;1269;62161;-72
2023/03/20 10:54:19;;;;;;;;;;;;;;;10.65;48.80;99969.59;105992;1260;59755;-75
2023/03/20 10:56:48;;;;;;;;;;;;;;;10.68;48.21;99961.89;105635;1261;74870;-76
2023/03/20 10:59:21;;;;;;;;;;;;;;;10.67;48.70;99957.23;105621;1258;69575;-75
2023/03/20 11:01:52;;;;;;;;;;;;;;;10.73;48.83;99952.54;105660;1258;74409;-79
2023/03/20 11:04:21;;;;;;;;;;;;;;;10.85;48.50;99950.86;105780;1257;60962;-72
2023/03/20 11:07:05;;;;;;;;;;;;;;;11.00;46.97;99953.20;105617;1262;61811;-72
2023/03/20 11:09:35;;;;;;;;;;;;;;;11.07;46.75;99950.40;105797;1257;74465;-72
2023/03/20 11:12:03;;;;;;;;;;;;;;;11.12;46.74;99946.60;105836;1257;69740;-72
2023/03/20 11:14:36;;;;;;;;;;;;;;;11.15;47.19;99937.71;105631;1263;73107;-73
2023/03/20 11:17:05;;;;;;;;;;;;;;;11.28;47.46;99936.27;105650;1258;62282;-70
2023/03/20 11:19:34;;;;;;;;;;;;;;;11.42;47.14;99928.59;105722;1261;59904;-76
2023/03/20 11:22:23;;;;;;;;;;;;;;;11.50;47.00;99926.48;105635;1262;74520;-75
2023/03/20 11:24:53;;;;;;;;;;;;;;;11.55;47.06;99926.52;105656;1257;69389;-75
2023/03/20 11:27:26;;;;;;;;;;;;;;;11.60;47.50;99922.73;105511;1262;73467;-72
2023/03/20 11:30:00;;;;;;;;;;;;;;;11.69;47.48;99919.41;105709;1256;60269;-78
2023/03/20 11:32:29;;;;;;;;;;;;;;;11.78;47.43;99912.52;105418;1258;61863;-79
2023/03/20 11:35:17;;;;;;;;;;;;;;;11.85;46.79;99907.21;105756;1262;73598;-79
2023/03/20 11:37:46;;;;;;;;;;;;;;;11.82;47.14;99904.16;105801;1260;69350;-73
2023/03/20 11:40:21;;;;;;;;;;;;;;;11.86;47.37;99902.23;105702;1258;73347;-77
2023/03/20 11:43:02;;;;;;;;;;;;;;;11.98;47.05;99906.77;105815;1259;62188;-75
2023/03/20 11:45:34;;;;;;;;;;;;;;;12.06;46.92;99902.38;105502;1263;61848;-73
2023/03/20 11:48:04;;;;;;;;;;;;;;;12.10;46.25;99904.80;105787;1261;74544;-78
2023/03/20 11:50:34;;;;;;;;;;;;;;;12.09;46.11;99899.16;105846;1268;69201;-76
2023/03/20 11:53:24;;;;;;;;;;;;;;;12.05;46.46;99894.13;105662;1262;72347;-76
2023/03/20 11:56:16;;;;;;;;;;;;;;;12.18;46.97;99889.51;105566;1256;62305;-77
2023/03/20 11:58:52;;;;;;;;;;;;;;;12.35;46.66;99880.38;105609;1258;60138;-75
2023/03/20 12:01:20;;;;;;;;;;;;;;;12.41;46.22;99875.90;105595;1258;72556;-75
2023/03/20 12:03:54;;;;;;;;;;;;;;;12.43;46.27;99869.60;105993;1258;69731;-82
2023/03/20 12:06:26;;;;;;;;;;;;;;;12.51;45.68;99863.45;106119;1257;72944;-80
2023/03/20 12:08:59;;;;;;;;;;;;;;;12.56;46.10;99862.04;105547;1258;62132;-78
2023/03/20 12:11:31;;;;;;;;;;;;;;;12.68;45.77;99855.50;105741;1258;60463;-81
2023/03/20 12:14:02;;;;;;;;;;;;;;;12.79;44.98;99854.33;105632;1261;74700;-79
2023/03/20 12:16:30;;;;;;;;;;;;;;;12.79;44.95;99848.40;105809;1258;69818;-82
2023/03/20 12:19:03;;;;;;;;;;;;;;;12.77;44.92;99845.73;106355;1257;73299;-84
2023/03/20 12:21:33;;;;;;;;;;;;;;;12.74;45.24;99838.63;105954;1260;60444;-76
2023/03/20 12:24:08;;;;;;;;;;;;;;;12.78;44.24;99834.51;105719;1261;60435;-78
2023/03/20 12:26:43;;;;;;;;;;;;;;;12.84;44.28;99838.53;105943;1268;75330;-83
2023/03/20 12:29:11;;;;;;;;;;;;;;;12.96;43.84;99837.16;105509;1254;67491;-76
2023/03/20 12:31:45;;;;;;;;;;;;;;;13.08;43.52;99839.33;106020;1259;74343;-78
2023/03/20 12:34:19;;;;;;;;;;;;;;;13.16;43.04;99836.95;105865;1257;62434;-76
2023/03/20 12:36:48;;;;;;;;;;;;;;;13.08;43.27;99827.39;105864;1255;60552;-82
2023/03/20 12:39:17;;;;;;;;;;;;;;;13.02;43.55;99828.88;106063;1255;73101;-81
2023/03/20 12:41:56;;;;;;;;;;;;;;;13.03;43.29;99817.86;105902;1257;69327;-82
2023/03/20 12:44:32;;;;;;;;;;;;;;;13.07;43.52;99810.05;105907;1259;71748;-86
2023/03/20 12:47:18;;;;;;;;;;;;;;;13.13;43.12;99812.60;105801;1254;60477;-86
2023/03/20 12:49:54;;;;;;;;;;;;;;;13.06;42.53;99811.23;105934;1254;60482;-85
2023/03/20 12:52:27;;;;;;;;;;;;;;;13.06;42.79;99806.69;105920;1258;73432;-83
2023/03/20 12:55:14;;;;;;;;;;;;;;;13.17;42.71;99806.08;105870;1257;69540;-79
2023/03/20 12:57:54;;;;;;;;;;;;;;;13.33;42.79;99800.67;105885;1260;72681;-82
2023/03/20 13:00:32;;;;;;;;;;;;;;;13.35;42.62;99803.81;105682;1255;62179;-82
2023/03/20 13:03:19;;;;;;;;;;;;;;;13.25;42.31;99798.59;105781;1253;61471;-79
2023/03/20 13:05:54;;;;;;;;;;;;;;;13.27;42.81;99798.77;105851;1256;75437;-84
2023/03/20 13:08:41;;;;;;;;;;;;;;;13.37;41.72;99799.61;105850;1254;68484;-83
2023/03/20 13:11:11;;;;;;;;;;;;;;;13.48;41.21;99797.64;105893;1260;74186;-76
2023/03/20 13:13:47;;;;;;;;;;;;;;;13.42;41.15;99790.29;105878;1254;62189;-80
2023/03/20 13:16:25;;;;;;;;;;;;;;;13.45;41.74;99788.51;105879;1255;60486;-86
2023/03/20 13:18:59;;;;;;;;;;;;;;;13.48;41.87;99788.12;105888;1257;74690;-80
2023/03/20 13:21:32;;;;;;;;;;;;;;;13.55;42.08;99786.74;105633;1254;68760;-74
2023/03/20 13:24:04;;;;;;;;;;;;;;;13.67;41.15;99783.20;105885;1254;73851;-87
2023/03/20 13:26:37;;;;;;;;;;;;;;;13.76;40.86;99783.32;106197;1254;60010;-81